createdAt,value
2023-11-29T00:00:02.221Z,4.17
2023-11-29T00:00:34.171Z,4.63
2023-11-29T00:01:06.136Z,4.20
2023-11-29T00:01:38.158Z,3.73
2023-11-29T00:02:10.383Z,4.20
2023-11-29T00:02:43.305Z,4.30
2023-11-29T00:03:15.392Z,4.20
2023-11-29T00:03:47.371Z,3.90
2023-11-29T00:04:19.346Z,4.03
2023-11-29T00:04:51.285Z,3.97
2023-11-29T00:05:27.205Z,4.43
2023-11-29T00:06:05.395Z,3.87
2023-11-29T00:06:37.474Z,3.80
2023-11-29T00:07:09.497Z,4.07
2023-11-29T00:07:44.718Z,4.20
2023-11-29T00:08:16.706Z,4.00
2023-11-29T00:08:49.269Z,4.00
2023-11-29T00:09:21.308Z,4.07
2023-11-29T00:09:53.235Z,4.20
2023-11-29T00:10:25.182Z,3.97
2023-11-29T00:10:57.256Z,4.70
2023-11-29T00:11:29.882Z,4.27
2023-11-29T00:12:01.955Z,4.40
2023-11-29T00:12:33.916Z,4.33
2023-11-29T00:13:05.811Z,4.80
2023-11-29T00:13:37.710Z,5.13
2023-11-29T00:14:11.103Z,4.20
2023-11-29T00:14:43.360Z,4.23
2023-11-29T00:15:15.370Z,4.50
2023-11-29T00:15:50.702Z,4.40
2023-11-29T00:16:22.630Z,4.03
2023-11-29T00:16:58.703Z,4.57
2023-11-29T00:17:34.094Z,4.50
2023-11-29T00:18:06.342Z,4.17
2023-11-29T00:18:38.987Z,4.17
2023-11-29T00:19:11.042Z,4.50
2023-11-29T00:19:43.201Z,4.67
2023-11-29T00:20:15.105Z,4.40
2023-11-29T00:20:47.285Z,4.47
2023-11-29T00:21:19.266Z,4.80
2023-11-29T00:21:51.145Z,4.50
2023-11-29T00:22:23.331Z,4.50
2023-11-29T00:22:55.239Z,4.10
2023-11-29T00:23:27.168Z,4.87
2023-11-29T00:23:59.347Z,4.93
2023-11-29T00:24:31.295Z,4.47
2023-11-29T00:25:03.197Z,4.73
2023-11-29T00:25:35.304Z,5.03
2023-11-29T00:26:07.570Z,4.73
2023-11-29T00:26:39.522Z,4.60
2023-11-29T00:27:11.474Z,4.47
2023-11-29T00:27:43.318Z,4.97
2023-11-29T00:28:15.172Z,5.27
2023-11-29T00:28:47.037Z,4.80
2023-11-29T00:29:18.947Z,4.60
2023-11-29T00:29:50.929Z,5.07
2023-11-29T00:30:22.835Z,4.80
2023-11-29T00:30:55.175Z,5.23
2023-11-29T00:31:27.138Z,5.93
2023-11-29T00:31:59.048Z,5.60
2023-11-29T00:32:30.968Z,5.57
2023-11-29T00:33:02.975Z,5.73
2023-11-29T00:33:34.956Z,5.67
2023-11-29T00:34:09.175Z,5.17
2023-11-29T00:34:41.410Z,5.37
2023-11-29T00:35:13.497Z,5.50
2023-11-29T00:35:45.536Z,5.67
2023-11-29T00:36:17.585Z,5.40
2023-11-29T00:36:51.182Z,5.37
2023-11-29T00:37:23.122Z,5.67
2023-11-29T00:37:54.988Z,5.93
2023-11-29T00:38:26.933Z,5.13
2023-11-29T00:38:58.879Z,5.97
2023-11-29T00:39:31.900Z,5.90
2023-11-29T00:40:03.981Z,5.27
2023-11-29T00:40:35.951Z,5.77
2023-11-29T00:41:08.321Z,5.97
2023-11-29T00:41:40.301Z,6.67
2023-11-29T00:42:12.373Z,6.17
2023-11-29T00:42:44.672Z,6.30
2023-11-29T00:43:16.533Z,5.87
2023-11-29T00:43:48.464Z,6.13
2023-11-29T00:44:20.337Z,5.97
2023-11-29T00:44:53.719Z,6.40
2023-11-29T00:45:25.719Z,6.17
2023-11-29T00:45:57.632Z,6.40
2023-11-29T00:46:29.661Z,6.50
2023-11-29T00:47:01.600Z,6.63
2023-11-29T00:47:33.636Z,6.37
2023-11-29T00:48:05.721Z,5.97
2023-11-29T00:48:37.633Z,5.90
2023-11-29T00:49:09.670Z,6.27
2023-11-29T00:49:42.027Z,6.23
2023-11-29T00:50:15.067Z,6.67
2023-11-29T00:50:47.025Z,6.57
2023-11-29T00:51:18.921Z,6.07
2023-11-29T00:51:51.052Z,6.53
2023-11-29T00:52:22.937Z,6.87
2023-11-29T00:52:54.870Z,6.53
2023-11-29T00:53:27.242Z,6.47
2023-11-29T00:53:59.119Z,6.47
2023-11-29T00:54:30.971Z,6.97
2023-11-29T00:55:02.890Z,7.20
2023-11-29T00:55:35.934Z,7.30
2023-11-29T00:56:08.936Z,7.03
2023-11-29T00:56:40.896Z,7.13
2023-11-29T00:57:12.821Z,7.00
2023-11-29T00:57:44.739Z,7.10
2023-11-29T00:58:16.673Z,7.43
2023-11-29T00:58:48.661Z,7.40
2023-11-29T00:59:20.575Z,7.20
2023-11-29T00:59:52.603Z,6.83
2023-11-29T01:00:24.503Z,6.57
2023-11-29T01:00:56.433Z,7.47
2023-11-29T01:01:28.499Z,7.23
2023-11-29T01:02:00.628Z,7.53
2023-11-29T01:02:32.907Z,7.23
2023-11-29T01:03:05.037Z,7.50
2023-11-29T01:03:37.078Z,7.87
2023-11-29T01:04:09.086Z,7.47
2023-11-29T01:04:41.001Z,7.77
2023-11-29T01:05:13.009Z,8.00
2023-11-29T01:05:45.043Z,7.43
2023-11-29T01:06:16.939Z,8.00
2023-11-29T01:06:48.835Z,7.60
2023-11-29T01:07:20.737Z,7.37
2023-11-29T01:07:52.678Z,7.20
2023-11-29T01:08:26.887Z,7.37
2023-11-29T01:08:58.936Z,7.53
2023-11-29T01:09:31.036Z,8.07
2023-11-29T01:10:02.915Z,7.63
2023-11-29T01:10:34.896Z,7.77
2023-11-29T01:11:06.924Z,7.77
2023-11-29T01:11:39.043Z,7.73
2023-11-29T01:12:11.053Z,7.43
2023-11-29T01:12:43.032Z,7.23
2023-11-29T01:13:15.130Z,7.63
2023-11-29T01:13:47.374Z,7.37
2023-11-29T01:14:19.497Z,8.07
2023-11-29T01:14:51.485Z,8.40
2023-11-29T01:15:23.402Z,8.07
2023-11-29T01:15:55.352Z,8.10
2023-11-29T01:16:27.396Z,7.63
2023-11-29T01:16:59.398Z,7.80
2023-11-29T01:17:32.582Z,7.93
2023-11-29T01:18:06.246Z,7.93
2023-11-29T01:18:41.511Z,8.40
2023-11-29T01:19:14.275Z,7.53
2023-11-29T01:19:46.520Z,7.47
2023-11-29T01:20:18.676Z,7.97
2023-11-29T01:20:50.712Z,8.53
2023-11-29T01:21:28.936Z,8.20
2023-11-29T01:22:05.502Z,8.60
2023-11-29T01:22:37.586Z,8.50
2023-11-29T01:23:11.085Z,8.40
2023-11-29T01:23:44.491Z,8.03
2023-11-29T01:24:16.683Z,8.23
2023-11-29T01:24:48.530Z,8.20
2023-11-29T01:25:20.458Z,8.73
2023-11-29T01:25:52.411Z,8.67
2023-11-29T01:26:24.318Z,8.67
2023-11-29T01:26:56.219Z,8.87
2023-11-29T01:27:31.659Z,9.33
2023-11-29T01:28:06.897Z,8.93
2023-11-29T01:28:39.080Z,8.90
2023-11-29T01:29:11.735Z,9.33
2023-11-29T01:29:43.995Z,9.40
2023-11-29T01:30:16.105Z,9.60
2023-11-29T01:30:48.246Z,8.90
2023-11-29T01:31:20.307Z,8.90
2023-11-29T01:31:52.398Z,9.10
2023-11-29T01:32:24.329Z,9.30
2023-11-29T01:32:56.414Z,8.87
2023-11-29T01:33:28.348Z,7.93
2023-11-29T01:34:00.296Z,9.23
2023-11-29T01:34:32.284Z,9.57
2023-11-29T01:35:05.461Z,8.93
2023-11-29T01:35:37.387Z,8.83
2023-11-29T01:36:10.774Z,8.83
2023-11-29T01:36:44.460Z,9.07
2023-11-29T01:37:16.593Z,9.67
2023-11-29T01:37:49.960Z,10.03
2023-11-29T01:38:21.856Z,9.27
2023-11-29T01:38:53.866Z,8.53
2023-11-29T01:39:25.768Z,8.77
2023-11-29T01:39:57.733Z,9.10
2023-11-29T01:40:29.619Z,9.17
2023-11-29T01:41:01.657Z,8.93
2023-11-29T01:41:33.737Z,9.57
2023-11-29T01:42:05.952Z,9.57
2023-11-29T01:42:38.532Z,9.93
2023-11-29T01:43:10.415Z,9.33
2023-11-29T01:43:42.265Z,9.97
2023-11-29T01:44:14.236Z,10.17
2023-11-29T01:44:47.930Z,9.73
2023-11-29T01:45:20.111Z,10.13
2023-11-29T01:45:52.123Z,10.60
2023-11-29T01:46:24.506Z,10.13
2023-11-29T01:46:57.038Z,10.03
2023-11-29T01:47:33.098Z,10.07
2023-11-29T01:48:05.280Z,9.63
2023-11-29T01:48:37.715Z,10.20
2023-11-29T01:49:09.962Z,9.83
2023-11-29T01:49:43.491Z,9.63
2023-11-29T01:50:21.660Z,9.83
2023-11-29T01:50:54.368Z,10.37
2023-11-29T01:51:26.670Z,10.43
2023-11-29T01:51:58.767Z,10.10
2023-11-29T01:52:34.686Z,11.20
2023-11-29T01:53:11.170Z,10.80
2023-11-29T01:53:48.519Z,11.37
2023-11-29T01:54:22.445Z,11.07
2023-11-29T01:54:54.685Z,10.43
2023-11-29T01:55:29.233Z,10.23
2023-11-29T01:56:01.219Z,11.03
2023-11-29T01:56:33.171Z,10.00
2023-11-29T01:57:05.305Z,10.27
2023-11-29T01:57:37.217Z,10.67
2023-11-29T01:58:09.161Z,10.00
2023-11-29T01:58:41.129Z,10.00
2023-11-29T01:59:13.068Z,10.77
2023-11-29T01:59:45.017Z,11.10
2023-11-29T02:00:17.250Z,11.37
2023-11-29T02:00:50.836Z,11.03
2023-11-29T02:01:23.059Z,10.87
2023-11-29T02:01:55.387Z,10.83
2023-11-29T02:02:27.470Z,11.43
2023-11-29T02:02:59.782Z,11.00
2023-11-29T02:03:31.894Z,11.20
2023-11-29T02:04:04.021Z,10.97
2023-11-29T02:04:36.083Z,10.67
2023-11-29T02:05:08.459Z,10.73
2023-11-29T02:05:40.759Z,10.87
2023-11-29T02:06:13.187Z,11.17
2023-11-29T02:06:46.943Z,10.90
2023-11-29T02:07:19.039Z,11.67
2023-11-29T02:07:51.054Z,11.03
2023-11-29T02:08:23.348Z,10.83
2023-11-29T02:08:55.386Z,10.80
2023-11-29T02:09:27.408Z,10.57
2023-11-29T02:10:10.784Z,11.83
2023-11-29T02:10:43.056Z,11.20
2023-11-29T02:11:18.533Z,10.77
2023-11-29T02:11:50.901Z,10.67
2023-11-29T02:12:23.554Z,11.47
2023-11-29T02:12:56.085Z,11.93
2023-11-29T02:13:27.957Z,11.40
2023-11-29T02:13:59.821Z,11.93
2023-11-29T02:14:31.771Z,12.23
2023-11-29T02:15:05.084Z,11.43
2023-11-29T02:15:38.135Z,11.67
2023-11-29T02:16:10.132Z,11.60
2023-11-29T02:16:42.078Z,11.30
2023-11-29T02:17:14.061Z,12.17
2023-11-29T02:17:46.005Z,12.47
2023-11-29T02:18:18.499Z,12.60
2023-11-29T02:18:50.367Z,11.57
2023-11-29T02:19:22.276Z,12.13
2023-11-29T02:19:54.286Z,11.87
2023-11-29T02:20:27.554Z,11.80
2023-11-29T02:20:59.764Z,11.83
2023-11-29T02:21:31.772Z,11.90
2023-11-29T02:22:04.438Z,12.10
2023-11-29T02:22:39.405Z,12.33
2023-11-29T02:23:17.506Z,11.87
2023-11-29T02:24:04.967Z,12.13
2023-11-29T02:24:42.086Z,12.27
2023-11-29T02:25:13.965Z,12.53
2023-11-29T02:25:45.988Z,12.03
2023-11-29T02:26:17.910Z,11.53
2023-11-29T02:26:49.815Z,11.23
2023-11-29T02:27:22.188Z,11.67
2023-11-29T02:27:54.579Z,12.20
2023-11-29T02:28:26.496Z,11.53
2023-11-29T02:28:58.804Z,11.70
2023-11-29T02:29:30.742Z,12.87
2023-11-29T02:30:02.718Z,12.50
2023-11-29T02:30:34.674Z,12.17
2023-11-29T02:31:06.780Z,12.13
2023-11-29T02:31:38.718Z,12.87
2023-11-29T02:32:10.657Z,12.90
2023-11-29T02:32:42.655Z,12.60
2023-11-29T02:33:14.731Z,12.27
2023-11-29T02:33:47.116Z,12.63
2023-11-29T02:34:19.029Z,12.13
2023-11-29T02:34:51.398Z,12.10
2023-11-29T02:35:23.306Z,12.17
2023-11-29T02:35:55.310Z,12.40
2023-11-29T02:36:27.201Z,12.33
2023-11-29T02:36:59.099Z,12.03
2023-11-29T02:37:30.978Z,12.23
2023-11-29T02:38:03.149Z,11.87
2023-11-29T02:38:35.187Z,12.17
2023-11-29T02:39:07.100Z,12.70
2023-11-29T02:39:40.343Z,11.97
2023-11-29T02:40:12.563Z,11.87
2023-11-29T02:40:44.741Z,11.77
2023-11-29T02:41:16.748Z,11.03
2023-11-29T02:41:48.791Z,11.37
2023-11-29T02:42:21.433Z,11.63
2023-11-29T02:42:53.720Z,12.63
2023-11-29T02:43:25.652Z,12.40
2023-11-29T02:43:57.669Z,12.03
2023-11-29T02:44:29.655Z,11.23
2023-11-29T02:45:01.593Z,11.67
2023-11-29T02:45:33.913Z,12.43
2023-11-29T02:46:06.020Z,11.93
2023-11-29T02:46:37.932Z,11.47
2023-11-29T02:47:09.867Z,12.53
2023-11-29T02:47:41.936Z,11.37
2023-11-29T02:48:14.044Z,12.13
2023-11-29T02:48:46.941Z,11.83
2023-11-29T02:49:19.478Z,12.13
2023-11-29T02:49:51.480Z,12.90
2023-11-29T02:50:23.516Z,11.80
2023-11-29T02:50:55.492Z,11.77
2023-11-29T02:51:28.881Z,11.57
2023-11-29T02:52:00.777Z,12.13
2023-11-29T02:52:32.697Z,12.53
2023-11-29T02:53:04.605Z,11.37
2023-11-29T02:53:36.518Z,12.00
2023-11-29T02:54:08.411Z,11.93
2023-11-29T02:54:40.733Z,11.63
2023-11-29T02:55:12.786Z,11.20
2023-11-29T02:55:44.688Z,11.77
2023-11-29T02:56:16.603Z,10.80
2023-11-29T02:56:48.769Z,11.00
2023-11-29T02:57:20.689Z,10.80
2023-11-29T02:57:52.661Z,11.00
2023-11-29T02:58:24.580Z,11.73
2023-11-29T02:58:56.459Z,11.90
2023-11-29T02:59:28.392Z,11.90
2023-11-29T03:00:01.116Z,11.47
2023-11-29T03:00:33.680Z,11.47
2023-11-29T03:01:05.914Z,11.33
2023-11-29T03:01:37.902Z,12.27
2023-11-29T03:02:11.323Z,11.83
2023-11-29T03:02:43.413Z,11.57
2023-11-29T03:03:15.917Z,11.07
2023-11-29T03:03:47.905Z,11.00
2023-11-29T03:04:19.844Z,10.87
2023-11-29T03:04:51.769Z,11.03
2023-11-29T03:05:23.654Z,11.73
2023-11-29T03:05:56.124Z,11.17
2023-11-29T03:06:28.030Z,12.00
2023-11-29T03:06:59.975Z,12.20
2023-11-29T03:07:31.891Z,12.90
2023-11-29T03:08:05.585Z,11.17
2023-11-29T03:08:37.638Z,11.40
2023-11-29T03:09:09.631Z,10.90
2023-11-29T03:09:41.560Z,11.17
2023-11-29T03:10:15.024Z,10.97
2023-11-29T03:10:48.810Z,11.77
2023-11-29T03:11:20.802Z,11.70
2023-11-29T03:11:52.725Z,11.80
2023-11-29T03:12:24.591Z,11.00
2023-11-29T03:12:56.518Z,10.63
2023-11-29T03:13:29.395Z,10.60
2023-11-29T03:14:01.405Z,11.20
2023-11-29T03:14:34.682Z,11.67
2023-11-29T03:15:07.096Z,10.93
2023-11-29T03:15:39.504Z,10.43
2023-11-29T03:16:11.476Z,10.43
2023-11-29T03:16:43.396Z,10.67
2023-11-29T03:17:15.349Z,9.67
2023-11-29T03:17:47.366Z,9.80
2023-11-29T03:18:19.519Z,9.60
2023-11-29T03:18:51.925Z,10.00
2023-11-29T03:19:23.793Z,9.47
2023-11-29T03:19:55.693Z,9.47
2023-11-29T03:20:27.595Z,10.00
2023-11-29T03:20:59.609Z,9.60
2023-11-29T03:21:31.589Z,10.60
2023-11-29T03:22:03.533Z,10.23
2023-11-29T03:22:35.583Z,10.20
2023-11-29T03:23:07.520Z,10.20
2023-11-29T03:23:39.577Z,10.47
2023-11-29T03:24:11.470Z,10.10
2023-11-29T03:24:47.028Z,9.90
2023-11-29T03:25:18.900Z,9.70
2023-11-29T03:25:50.757Z,8.80
2023-11-29T03:26:22.669Z,9.57
2023-11-29T03:26:54.743Z,9.87
2023-11-29T03:27:27.500Z,10.43
2023-11-29T03:27:59.590Z,9.63
2023-11-29T03:28:31.537Z,9.97
2023-11-29T03:29:03.427Z,9.37
2023-11-29T03:29:35.368Z,9.83
2023-11-29T03:30:07.804Z,10.33
2023-11-29T03:30:39.745Z,10.80
2023-11-29T03:31:11.723Z,10.00
2023-11-29T03:31:43.675Z,9.50
2023-11-29T03:32:15.673Z,9.57
2023-11-29T03:32:47.729Z,9.00
2023-11-29T03:33:19.716Z,9.23
2023-11-29T03:33:51.703Z,10.07
2023-11-29T03:34:24.232Z,10.27
2023-11-29T03:34:56.133Z,9.13
2023-11-29T03:35:28.001Z,10.00
2023-11-29T03:35:59.942Z,9.97
2023-11-29T03:36:31.869Z,9.93
2023-11-29T03:37:03.779Z,10.10
2023-11-29T03:37:35.720Z,9.63
2023-11-29T03:38:07.589Z,9.57
2023-11-29T03:38:39.620Z,9.77
2023-11-29T03:39:11.728Z,9.97
2023-11-29T03:39:43.647Z,9.73
2023-11-29T03:40:15.724Z,10.03
2023-11-29T03:40:47.672Z,10.07
2023-11-29T03:41:19.573Z,9.93
2023-11-29T03:41:51.718Z,9.83
2023-11-29T03:42:23.666Z,9.60
2023-11-29T03:42:55.683Z,9.60
2023-11-29T03:43:27.648Z,9.47
2023-11-29T03:43:59.902Z,10.47
2023-11-29T03:44:32.454Z,10.03
2023-11-29T03:45:04.769Z,10.17
2023-11-29T03:45:36.651Z,10.00
2023-11-29T03:46:08.531Z,9.90
2023-11-29T03:46:40.411Z,9.43
2023-11-29T03:47:12.333Z,10.07
2023-11-29T03:47:44.375Z,9.30
2023-11-29T03:48:16.395Z,9.87
2023-11-29T03:48:49.089Z,10.93
2023-11-29T03:49:21.031Z,9.43
2023-11-29T03:49:52.927Z,8.93
2023-11-29T03:50:24.841Z,9.83
2023-11-29T03:50:56.869Z,9.63
2023-11-29T03:51:34.721Z,9.80
2023-11-29T03:52:10.100Z,10.20
2023-11-29T03:52:43.702Z,9.80
2023-11-29T03:53:16.188Z,9.83
2023-11-29T03:53:48.122Z,9.53
2023-11-29T03:54:20.322Z,9.53
2023-11-29T03:54:52.978Z,9.03
2023-11-29T03:55:24.918Z,9.43
2023-11-29T03:55:56.801Z,9.63
2023-11-29T03:56:28.756Z,9.57
2023-11-29T03:57:00.706Z,10.17
2023-11-29T03:57:32.965Z,9.80
2023-11-29T03:58:05.931Z,9.57
2023-11-29T03:58:38.625Z,9.57
2023-11-29T03:59:10.596Z,9.20
2023-11-29T03:59:42.679Z,9.50
2023-11-29T04:00:15.293Z,9.57
2023-11-29T04:00:47.195Z,9.43
2023-11-29T04:01:19.239Z,8.70
2023-11-29T04:01:51.270Z,9.70
2023-11-29T04:02:23.388Z,9.20
2023-11-29T04:02:55.498Z,9.27
2023-11-29T04:03:27.684Z,9.90
2023-11-29T04:03:59.761Z,9.07
2023-11-29T04:04:31.801Z,9.27
2023-11-29T04:05:05.247Z,9.37
2023-11-29T04:05:38.586Z,9.50
2023-11-29T04:06:10.608Z,9.30
2023-11-29T04:06:42.502Z,8.70
2023-11-29T04:07:14.438Z,9.27
2023-11-29T04:07:46.370Z,9.33
2023-11-29T04:08:19.024Z,9.20
2023-11-29T04:08:51.617Z,9.53
2023-11-29T04:09:23.573Z,9.70
2023-11-29T04:10:02.074Z,9.73
2023-11-29T04:10:37.695Z,9.03
2023-11-29T04:11:11.717Z,8.97
2023-11-29T04:11:46.526Z,9.27
2023-11-29T04:12:18.407Z,9.40
2023-11-29T04:12:50.422Z,9.10
2023-11-29T04:13:22.366Z,8.90
2023-11-29T04:13:54.225Z,10.17
2023-11-29T04:14:26.398Z,9.47
2023-11-29T04:14:58.382Z,9.30
2023-11-29T04:15:30.324Z,9.33
2023-11-29T04:16:02.200Z,9.83
2023-11-29T04:16:35.528Z,9.80
2023-11-29T04:17:08.438Z,9.10
2023-11-29T04:17:40.458Z,9.17
2023-11-29T04:18:12.624Z,9.50
2023-11-29T04:18:44.583Z,9.47
2023-11-29T04:19:16.759Z,8.60
2023-11-29T04:19:48.784Z,9.53
2023-11-29T04:20:20.666Z,9.47
2023-11-29T04:20:52.712Z,9.50
2023-11-29T04:21:28.209Z,9.50
2023-11-29T04:22:00.690Z,10.10
2023-11-29T04:22:32.726Z,9.93
2023-11-29T04:23:04.714Z,9.57
2023-11-29T04:23:36.691Z,9.40
2023-11-29T04:24:08.638Z,9.53
2023-11-29T04:24:41.134Z,9.67
2023-11-29T04:25:13.087Z,9.07
2023-11-29T04:25:45.005Z,10.13
2023-11-29T04:26:43.075Z,9.90
2023-11-29T04:27:15.097Z,10.13
2023-11-29T04:27:47.131Z,10.20
2023-11-29T04:28:19.064Z,10.80
2023-11-29T04:28:51.119Z,9.90
2023-11-29T04:29:23.088Z,9.73
2023-11-29T04:29:55.084Z,9.67
2023-11-29T04:30:28.045Z,9.30
2023-11-29T04:31:00.134Z,9.10
2023-11-29T04:31:33.457Z,9.83
2023-11-29T04:32:05.549Z,9.20
2023-11-29T04:32:37.539Z,9.53
2023-11-29T04:33:09.606Z,9.77
2023-11-29T04:33:41.610Z,9.67
2023-11-29T04:34:22.869Z,10.23
2023-11-29T04:35:00.512Z,10.10
2023-11-29T04:35:33.174Z,9.37
2023-11-29T04:36:05.714Z,9.63
2023-11-29T04:36:37.669Z,9.97
2023-11-29T04:37:09.588Z,10.07
2023-11-29T04:37:41.617Z,9.30
2023-11-29T04:38:16.965Z,9.77
2023-11-29T04:38:50.027Z,9.77
2023-11-29T04:39:21.962Z,9.83
2023-11-29T04:39:53.920Z,10.40
2023-11-29T04:40:25.900Z,9.97
2023-11-29T04:40:57.788Z,10.13
2023-11-29T04:41:29.812Z,10.40
2023-11-29T04:42:01.732Z,9.93
2023-11-29T04:42:33.904Z,9.70
2023-11-29T04:43:06.377Z,10.53
2023-11-29T04:43:38.358Z,9.47
2023-11-29T04:44:10.817Z,9.53
2023-11-29T04:44:42.898Z,10.17
2023-11-29T04:45:14.913Z,10.40
2023-11-29T04:45:46.781Z,10.53
2023-11-29T04:46:18.750Z,9.57
2023-11-29T04:46:50.780Z,9.80
2023-11-29T04:47:25.028Z,10.93
2023-11-29T04:47:57.068Z,10.40
2023-11-29T04:48:29.119Z,10.40
2023-11-29T04:49:01.095Z,10.73
2023-11-29T04:49:33.042Z,10.43
2023-11-29T04:50:05.381Z,9.90
2023-11-29T04:50:37.295Z,10.77
2023-11-29T04:51:09.448Z,9.77
2023-11-29T04:51:41.446Z,9.60
2023-11-29T04:52:13.499Z,10.63
2023-11-29T04:52:45.402Z,9.97
2023-11-29T04:53:17.608Z,9.87
2023-11-29T04:53:49.638Z,10.37
2023-11-29T04:54:21.641Z,10.83
2023-11-29T04:54:53.743Z,10.27
2023-11-29T04:55:25.792Z,10.30
2023-11-29T04:55:57.843Z,10.80
2023-11-29T04:56:32.013Z,11.23
2023-11-29T04:57:05.239Z,10.97
2023-11-29T04:57:37.122Z,11.23
2023-11-29T04:58:09.015Z,11.20
2023-11-29T04:58:41.561Z,10.70
2023-11-29T04:59:13.603Z,11.07
2023-11-29T04:59:45.518Z,12.20
2023-11-29T05:00:17.548Z,12.07
2023-11-29T05:00:49.982Z,11.43
2023-11-29T05:01:21.990Z,12.07
2023-11-29T05:01:54.146Z,11.43
2023-11-29T05:02:26.896Z,11.47
2023-11-29T05:02:59.574Z,10.77
2023-11-29T05:03:31.667Z,10.57
2023-11-29T05:04:03.923Z,10.40
2023-11-29T05:04:35.858Z,11.27
2023-11-29T05:05:09.121Z,10.87
2023-11-29T05:05:41.343Z,10.37
2023-11-29T05:06:13.828Z,10.20
2023-11-29T05:06:45.775Z,10.40
2023-11-29T05:07:17.712Z,10.47
2023-11-29T05:07:49.654Z,10.67
2023-11-29T05:08:21.601Z,10.47
2023-11-29T05:08:53.569Z,10.53
2023-11-29T05:09:25.637Z,11.40
2023-11-29T05:09:57.714Z,11.07
2023-11-29T05:10:29.635Z,11.40
2023-11-29T05:11:02.113Z,11.40
2023-11-29T05:11:34.130Z,11.80
2023-11-29T05:12:07.526Z,12.50
2023-11-29T05:12:39.392Z,11.10
2023-11-29T05:13:11.361Z,10.40
2023-11-29T05:13:43.320Z,11.20
2023-11-29T05:14:17.050Z,11.30
2023-11-29T05:14:49.445Z,12.00
2023-11-29T05:15:25.900Z,11.67
2023-11-29T05:16:04.243Z,12.50
2023-11-29T05:16:36.148Z,11.70
2023-11-29T05:17:08.079Z,12.97
2023-11-29T05:17:40.581Z,14.27
2023-11-29T05:18:13.551Z,13.77
2023-11-29T05:18:45.774Z,14.13
2023-11-29T05:19:18.534Z,15.37
2023-11-29T05:19:51.571Z,14.60
2023-11-29T05:20:23.849Z,15.30
2023-11-29T05:20:55.981Z,14.73
2023-11-29T05:21:28.401Z,10.83
2023-11-29T05:22:00.472Z,10.93
2023-11-29T05:22:32.393Z,10.30
2023-11-29T05:23:04.360Z,10.27
2023-11-29T05:23:39.513Z,10.60
2023-11-29T05:24:11.449Z,11.10
2023-11-29T05:24:43.768Z,10.43
2023-11-29T05:25:15.961Z,10.20
2023-11-29T05:25:48.284Z,10.10
2023-11-29T05:26:20.326Z,10.43
2023-11-29T05:26:54.081Z,10.20
2023-11-29T05:27:25.999Z,10.50
2023-11-29T05:27:57.912Z,10.77
2023-11-29T05:28:32.422Z,10.67
2023-11-29T05:29:04.418Z,10.10
2023-11-29T05:29:36.710Z,11.10
2023-11-29T05:30:09.552Z,10.53
2023-11-29T05:30:41.544Z,11.00
2023-11-29T05:31:14.514Z,11.00
2023-11-29T05:31:46.698Z,10.80
2023-11-29T05:32:18.625Z,10.87
2023-11-29T05:32:50.620Z,11.97
2023-11-29T05:33:23.801Z,11.30
2023-11-29T05:33:55.918Z,10.83
2023-11-29T05:34:28.438Z,11.33
2023-11-29T05:35:00.775Z,10.83
2023-11-29T05:35:33.269Z,10.03
2023-11-29T05:36:07.234Z,11.37
2023-11-29T05:36:39.288Z,11.43
2023-11-29T05:37:11.292Z,11.13
2023-11-29T05:37:43.208Z,10.97
2023-11-29T05:38:15.170Z,10.90
2023-11-29T05:38:47.223Z,10.23
2023-11-29T05:39:20.927Z,9.90
2023-11-29T05:39:52.933Z,10.43
2023-11-29T05:40:25.045Z,10.07
2023-11-29T05:40:58.800Z,10.57
2023-11-29T05:41:30.780Z,10.70
2023-11-29T05:42:06.389Z,10.30
2023-11-29T05:42:42.082Z,10.20
2023-11-29T05:43:13.941Z,10.47
2023-11-29T05:43:45.927Z,10.40
2023-11-29T05:44:17.920Z,10.27
2023-11-29T05:44:51.211Z,10.77
2023-11-29T05:45:23.090Z,10.30
2023-11-29T05:45:55.033Z,10.07
2023-11-29T05:46:29.245Z,9.87
2023-11-29T05:47:02.017Z,9.83
2023-11-29T05:47:33.976Z,9.43
2023-11-29T05:48:06.281Z,10.03
2023-11-29T05:48:38.345Z,9.30
2023-11-29T05:49:11.346Z,9.30
2023-11-29T05:49:43.954Z,10.10
2023-11-29T05:50:15.994Z,10.17
2023-11-29T05:50:47.970Z,10.50
2023-11-29T05:51:20.009Z,10.40
2023-11-29T05:51:51.989Z,10.13
2023-11-29T05:52:23.889Z,10.07
2023-11-29T05:52:55.855Z,10.77
2023-11-29T05:53:27.790Z,9.57
2023-11-29T05:53:59.825Z,9.57
2023-11-29T05:54:31.807Z,10.57
2023-11-29T05:55:03.972Z,10.70
2023-11-29T05:55:36.127Z,11.00
2023-11-29T05:56:08.512Z,10.47
2023-11-29T05:56:40.428Z,10.40
2023-11-29T05:57:12.567Z,10.50
2023-11-29T05:57:46.524Z,9.97
2023-11-29T05:58:18.447Z,10.03
2023-11-29T05:58:50.488Z,10.43
2023-11-29T05:59:22.398Z,10.00
2023-11-29T05:59:57.333Z,9.67
2023-11-29T06:00:32.757Z,9.63
2023-11-29T06:01:08.593Z,9.73
2023-11-29T06:01:41.013Z,9.30
2023-11-29T06:02:16.407Z,9.53
2023-11-29T06:02:51.404Z,9.17
2023-11-29T06:03:27.154Z,10.63
2023-11-29T06:03:59.321Z,12.10
2023-11-29T06:04:31.325Z,10.00
2023-11-29T06:05:06.136Z,10.17
2023-11-29T06:05:38.607Z,9.63
2023-11-29T06:06:11.441Z,9.97
2023-11-29T06:06:43.467Z,10.13
2023-11-29T06:07:15.345Z,10.47
2023-11-29T06:07:50.064Z,10.60
2023-11-29T06:08:22.054Z,11.10
2023-11-29T06:08:54.021Z,11.30
2023-11-29T06:09:31.751Z,10.80
2023-11-29T06:10:06.365Z,10.53
2023-11-29T06:10:38.353Z,10.27
2023-11-29T06:11:10.405Z,10.53
2023-11-29T06:11:42.648Z,11.33
2023-11-29T06:12:14.723Z,11.33
2023-11-29T06:12:47.372Z,9.93
2023-11-29T06:13:21.635Z,10.87
2023-11-29T06:13:54.091Z,11.03
2023-11-29T06:14:28.820Z,10.60
2023-11-29T06:15:05.953Z,11.47
2023-11-29T06:15:38.106Z,11.27
2023-11-29T06:16:10.171Z,11.40
2023-11-29T06:16:42.135Z,11.40
2023-11-29T06:17:18.472Z,11.23
2023-11-29T06:17:53.974Z,11.53
2023-11-29T06:18:26.116Z,11.47
2023-11-29T06:18:58.151Z,12.13
2023-11-29T06:19:30.055Z,13.97
2023-11-29T06:20:02.971Z,14.67
2023-11-29T06:20:34.910Z,13.67
2023-11-29T06:21:07.089Z,13.77
2023-11-29T06:21:39.063Z,13.13
2023-11-29T06:22:11.012Z,12.80
2023-11-29T06:22:42.997Z,13.57
2023-11-29T06:23:15.318Z,13.40
2023-11-29T06:23:47.269Z,12.97
2023-11-29T06:24:19.154Z,12.60
2023-11-29T06:24:52.498Z,12.57
2023-11-29T06:25:24.881Z,12.37
2023-11-29T06:25:57.729Z,12.00
2023-11-29T06:26:29.762Z,11.77
2023-11-29T06:27:01.819Z,12.70
2023-11-29T06:27:33.802Z,11.93
2023-11-29T06:28:05.878Z,11.73
2023-11-29T06:28:39.871Z,12.27
2023-11-29T06:29:11.878Z,11.97
2023-11-29T06:29:44.080Z,12.33
2023-11-29T06:30:17.923Z,14.13
2023-11-29T06:30:49.928Z,13.57
2023-11-29T06:31:21.927Z,13.23
2023-11-29T06:31:53.913Z,12.40
2023-11-29T06:32:25.996Z,12.07
2023-11-29T06:32:58.359Z,13.40
2023-11-29T06:33:32.197Z,12.00
2023-11-29T06:34:06.899Z,12.83
2023-11-29T06:34:38.779Z,13.47
2023-11-29T06:35:14.071Z,12.40
2023-11-29T06:35:46.442Z,12.83
2023-11-29T06:36:18.415Z,12.13
2023-11-29T06:36:51.243Z,12.00
2023-11-29T06:37:23.265Z,12.37
2023-11-29T06:37:59.705Z,11.60
2023-11-29T06:38:34.705Z,11.37
2023-11-29T06:39:07.518Z,11.23
2023-11-29T06:39:39.501Z,11.00
2023-11-29T06:40:13.007Z,10.90
2023-11-29T06:40:50.507Z,10.97
2023-11-29T06:41:26.045Z,10.97
2023-11-29T06:41:57.999Z,11.43
2023-11-29T06:42:30.128Z,12.03
2023-11-29T06:43:02.085Z,11.87
2023-11-29T06:43:33.949Z,11.67
2023-11-29T06:44:05.922Z,11.73
2023-11-29T06:44:38.428Z,11.37
2023-11-29T06:45:13.785Z,11.33
2023-11-29T06:45:47.967Z,10.93
2023-11-29T06:46:20.170Z,10.97
2023-11-29T06:46:53.241Z,11.17
2023-11-29T06:47:25.312Z,10.97
2023-11-29T06:47:57.382Z,11.37
2023-11-29T06:48:29.395Z,12.03
2023-11-29T06:49:02.749Z,11.33
2023-11-29T06:49:35.120Z,11.23
2023-11-29T06:50:08.069Z,10.53
2023-11-29T06:50:40.099Z,10.70
2023-11-29T06:51:12.677Z,10.93
2023-11-29T06:51:44.655Z,11.07
2023-11-29T06:52:16.569Z,11.13
2023-11-29T06:52:48.723Z,11.10
2023-11-29T06:53:20.951Z,11.03
2023-11-29T06:53:52.860Z,10.97
2023-11-29T06:54:25.182Z,10.37
2023-11-29T06:54:57.141Z,11.07
2023-11-29T06:55:29.108Z,11.50
2023-11-29T06:56:01.056Z,11.30
2023-11-29T06:56:33.390Z,11.03
2023-11-29T06:57:05.456Z,11.03
2023-11-29T06:57:37.476Z,10.93
2023-11-29T06:58:15.214Z,10.73
2023-11-29T06:58:52.836Z,9.63
2023-11-29T06:59:24.884Z,10.90
2023-11-29T06:59:57.023Z,9.87
2023-11-29T07:00:29.037Z,13.63
2023-11-29T07:01:01.238Z,23.10
2023-11-29T07:01:33.945Z,14.53
2023-11-29T07:02:07.087Z,12.97
2023-11-29T07:02:43.210Z,11.73
2023-11-29T07:03:15.214Z,14.17
2023-11-29T07:03:47.324Z,16.47
2023-11-29T07:04:19.222Z,11.60
2023-11-29T07:04:51.165Z,12.80
2023-11-29T07:05:23.069Z,14.73